DADOS METEOROLÓGICOS

HOJE
Time Temp. Dewp. Hum. Direção Velocidade Wind gust Bar. 1h Prec. 24h Prec.
00:08 13.5 10.3 81 0 0.3 1015.4 0.0000 0.0000
00:19 13.3 10.1 81 0 0.3 1015.2 0.0000 0.0000
00:29 13.2 10 81 158 0.3 0.8 1015.3 0.0000 0.0000
00:38 13.2 10.2 82 0 0.3 1015.4 0.0000 0.0000
00:49 13.1 9.9 81 0 0.3 1015.4 0.0000 0.0000
00:59 13 10 82 0 0.3 1015.4 0.0000 0.0000
01:09 12.9 9.9 82 0 0.3 1015.4 0.0000 0.0000
01:19 12.8 9.8 82 155 0.3 0.3 1015.5 0.0000 0.0000
01:30 12.7 9.7 82 0 0.3 1015.6 0.0000 0.0000
01:39 12.6 9.6 82 175 0.3 0.8 1015.7 0.0000 0.0000
01:49 12.4 9.4 82 0 0.8 1015.7 0.0000 0.0000
01:59 12.3 9.3 82 174 0.3 0.8 1015.6 0.0000 0.0000
02:10 12.2 9.2 82 221 0.3 1.1 1015.7 0.0000 0.0000
02:20 12.1 9.1 82 221 0.3 0.8 1015.6 0.0000 0.0000
02:29 12 9 82 221 0.3 1.1 1015.7 0.0000 0.0000
02:40 11.9 8.9 82 218 0.3 1.1 1015.8 0.0000 0.0000
02:50 11.8 9 83 221 0.3 1.1 1015.6 0.0000 0.0000
03:00 11.8 8.8 82 222 0.8 1.1 1015.8 0.0000 0.0000
03:10 11.7 8.7 82 221 0.3 1.1 1015.6 0.0000 0.0000
03:20 11.6 8.8 83 222 0.3 1.1 1015.8 0.0000 0.0000
03:30 11.5 8.7 83 221 0.3 1.1 1015.7 0.0000 0.0000
03:40 11.4 8.6 83 221 0.3 1.1 1015.7 0.0000 0.0000
03:50 11.4 8.6 83 225 0.8 1.1 1015.7 0.0000 0.0000
04:01 11.3 8.5 83 222 0.8 1.1 1015.7 0.0000 0.0000
04:11 11.2 8.4 83 225 0.3 1.1 1015.6 0.0000 0.0000
04:20 11.1 8.3 83 225 0.8 1.1 1015.7 0.0000 0.0000
04:31 11 8.2 83 225 0.8 1.1 1015.6 0.0000 0.0000
04:41 10.9 8.1 83 225 0.8 1.1 1015.7 0.0000 0.0000
04:51 10.8 8.2 84 225 0.8 1.1 1015.6 0.0000 0.0000
05:01 10.7 8.1 84 225 0.8 1.1 1015.6 0.0000 0.0000
05:11 10.7 8.1 84 227 0.8 1.1 1015.7 0.0000 0.0000
05:21 10.6 8 84 225 0.8 1.1 1015.6 0.0000 0.0000
05:31 10.5 7.9 84 222 0.8 1.1 1015.5 0.0000 0.0000
05:42 10.4 7.8 84 222 0.8 1.1 1015.6 0.0000 0.0000
05:52 10.4 7.8 84 222 0.8 1.1 1015.5 0.0000 0.0000
06:01 10.3 7.7 84 219 0.8 1.1 1015.7 0.0000 0.0000
06:11 10.2 7.6 84 222 0.8 1.1 1015.7 0.0000 0.0000
06:22 10.1 7.5 84 221 0.3 1.1 1015.7 0.0000 0.0000
06:32 10 7.4 84 221 0.3 1.1 1015.7 0.0000 0.0000
06:42 10 7.4 84 218 0.3 1.1 1015.6 0.0000 0.0000
06:52 9.9 7.3 84 221 0.3 1.1 1015.8 0.0000 0.0000
07:02 9.9 7.3 84 221 0.3 0.8 1015.7 0.0000 0.0000
07:12 9.8 7.2 84 221 0.3 1.1 1015.8 0.0000 0.0000
07:22 9.8 7.2 84 221 0.3 0.8 1015.8 0.0000 0.0000
07:33 9.8 7.4 85 217 0.3 0.8 1015.9 0.0000 0.0000
07:43 10.5 8.6 88 217 0.3 0.8 1016.1 0.0000 0.0000
07:52 10.9 8.1 83 0 0.8 1016 0.0000 0.0000
08:03 10.8 8 83 0 0.8 1016 0.0000 0.0000
08:13 10.9 8.7 86 0 0.3 1015.9 0.0000 0.0000
08:23 12.2 9.8 85 0 0.3 1016.1 0.0000 0.0000
08:33 13 10.2 83 0 0.3 1016.2 0.0000 0.0000
08:43 14.2 11.2 82 135 0.3 0.8 1016.2 0.0000 0.0000
08:53 15.7 12.6 82 127 0.3 0.8 1016.3 0.0000 0.0000
09:03 17.6 14.3 81 0 0.3 1016.3 0.0000 0.0000
09:13 19.6 15.1 75 0 0.8 1016.4 0.0000 0.0000
09:24 20.9 15.4 71 200 0.3 0.8 1016.5 0.0000 0.0000
09:33 21.9 15.5 67 200 0.3 0.8 1016.5 0.0000 0.0000
09:43 20.9 13.8 64 45 0.3 1.1 1016.7 0.0000 0.0000
09:54 19.5 13.4 68 27 0.3 1.1 1016.6 0.0000 0.0000
10:04 18.8 13.2 70 33 0.3 0.8 1016.7 0.0000 0.0000
10:14 18.6 13.7 73 45 0.3 0.8 1016.7 0.1010 0.1000
10:23 18.9 14.2 74 0 0.3 1.4 1016.8 0.1010 0.1000
10:34 19.2 14.5 74 315 0.3 0.8 1016.9 0.1010 0.1000
10:44 19.4 14.4 73 135 0.3 1.1 1016.8 0.1010 0.1000
10:54 19.6 14.4 72 315 0.3 0.8 1017 0.1010 0.1000
11:04 20 14.6 71 331 0.3 1.1 1017 0.0000 0.1000
11:15 20.3 14.7 70 90 0.3 1.7 1017 0.0000 0.1000
11:24 20.4 14.3 68 108 0.8 2.2 1017 0.0000 0.1000
11:34 19.9 14.3 70 23 0.3 1.4 1017.1 0.0000 0.1000
11:45 19.4 13.8 70 39 0.3 1.4 1017.1 0.0000 0.1000
11:55 19.2 13.8 71 30 0.3 1.7 1017.3 0.0000 0.1000
12:05 19 13.8 72 26 0.3 1.1 1017.1 0.0000 0.1000
12:15 18.8 13.7 72 34 0.3 1.1 1017.1 0.0000 0.1000
12:25 18.7 13.8 73 90 0.3 1.4 1017.2 0.0000 0.1000
12:35 18.8 14.1 74 24 0.3 1.4 1017.2 0.0000 0.1000
12:45 18.7 13.8 73 41 0.8 1.7 1017.1 0.0000 0.1000
12:56 18.9 14.2 74 24 0.3 1.4 1017.1 0.0000 0.1000
13:05 19.3 14.6 74 40 0.3 1.4 1017 0.0000 0.1000
13:15 19.4 14.4 73 36 0.3 1.1 1017 0.0000 0.1000
13:25 19.6 14.8 74 45 0.3 0.8 1017.1 0.0000 0.1000
13:36 19.8 14.8 73 40 0.3 0.8 1017 0.0000 0.1000
13:46 19.9 15.1 74 45 0.3 1.1 1017 0.0000 0.1000
13:55 20 14.8 72 33 0.3 1.4 1017 0.0000 0.1000
14:06 20 15 73 25 0.3 2.5 1016.9 0.0000 0.1000
14:16 19.9 14.7 72 30 0.3 1.7 1016.9 0.0000 0.1000
14:26 19.9 14.7 72 45 0.3 2.2 1017 0.0000 0.1000
14:36 20.2 15 72 90 0.3 1.7 1016.9 0.0000 0.1000
14:46 20.1 14.9 72 39 0.3 0.8 1016.9 0.0000 0.1000
14:56 20.2 15 72 52 0.3 1.7 1016.9 0.0000 0.1000
15:06 20.5 14.8 70 49 0.3 1.4 1016.8 0.0000 0.1000
15:17 20.4 14.5 69 40 0.3 2.2 1016.7 0.0000 0.1000
15:27 20.2 14.3 69 28 0.8 1.4 1016.8 0.0000 0.1000
15:36 20 14.8 72 40 0.3 2.8 1016.8 0.0000 0.1000
15:46 19.8 14.8 73 45 0.3 1.4 1016.6 0.0000 0.1000
15:57 19.7 15.1 75 40 0.3 1.7 1016.6 0.0000 0.1000
16:07 19.9 14.9 73 40 0.3 2.5 1016.6 0.0000 0.1000
16:17 19.8 14.8 73 45 0.3 1.4 1016.6 0.0000 0.1000
16:27 19.7 14.5 72 36 0.3 2.2 1016.5 0.0000 0.1000
16:37 19.6 14.6 73 38 0.3 2.2 1016.4 0.0000 0.1000
16:47 19.5 14.7 74 39 0.8 2.2 1016.4 0.0000 0.1000
16:57 19.5 14.3 72 37 0.8 2.2 1016.3 0.0000 0.1000
17:08 19.4 14.4 73 53 0.3 2.2 1016.2 0.0000 0.1000
17:18 19.2 14.5 74 33 0.8 2.5 1016.2 0.0000 0.1000
17:27 19.2 14.5 74 28 0.3 1.4 1016.1 0.0000 0.1000
17:37 19.2 14.5 74 27 0.8 1.7 1016.1 0.0000 0.1000
17:48 19.2 14.5 74 37 0.3 1.4 1016.2 0.0000 0.1000
17:58 19.1 14.4 74 35 0.8 1.7 1016.2 0.0000 0.1000
18:07 19.1 14.4 74 27 0.8 1.4 1016.2 0.0000 0.1000
18:18 19 14.5 75 36 0.3 1.7 1016.3 0.0000 0.1000
18:28 19 14.7 76 40 0.3 0.8 1016.4 0.0000 0.1000
18:38 18.9 14.4 75 30 0.3 1.4 1016.3 0.0000 0.1000
18:48 18.7 14.4 76 45 0.3 1.4 1016.3 0.0000 0.1000
18:58 18.7 14.6 77 24 0.3 1.1 1016.3 0.0000 0.1000
19:08 18.5 14.4 77 35 0.3 1.7 1016.4 0.0000 0.1000
19:18 18.4 14.3 77 225 0.3 0.8 1016.4 0.0000 0.1000
19:29 18.3 14.2 77 37 0.3 2.2 1016.5 0.0000 0.1000
19:39 18.1 14.2 78 206 0.3 1.1 1016.6 0.0000 0.1000
19:49 18 14.1 78 180 0.3 1.4 1016.6 0.0000 0.1000
19:58 17.9 14.2 79 135 0.3 1.1 1016.6 0.0000 0.1000
20:09 17.7 14 79 90 0.3 1.1 1016.6 0.0000 0.1000
20:19 17.6 13.9 79 45 0.3 1.4 1016.7 0.0000 0.1000
20:29 17.5 14 80 45 0.3 1.4 1016.7 0.0000 0.1000
20:39 17.4 13.9 80 45 0.3 1.7 1016.6 0.0000 0.1000
20:49 17.3 14 81 45 0.8 1.7 1016.9 0.0000 0.1000
20:59 17.1 13.8 81 32 0.8 1.4 1016.9 0.0000 0.1000
21:09 17 13.9 82 20 0.8 1.7 1016.9 0.0000 0.1000
21:20 16.9 13.8 82 19 0.8 2.2 1016.9 0.0000 0.1000
21:30 16.8 13.9 83 36 0.8 2.5 1016.7 0.0000 0.1000
21:39 16.7 13.8 83 23 0.8 1.4 1016.8 0.0000 0.1000
21:50 16.7 13.8 83 22 0.8 1.7 1016.9 0.0000 0.1000
22:00 16.6 13.7 83 31 0.8 1.7 1016.9 0.0000 0.1000
22:10 16.5 13.6 83 25 0.8 2.2 1016.9 0.0000 0.1000

ESTATÍSTICAS DO DIA

2021-09-18
TEMPERATURA
MÉDIA
16.0
MÁXIMO
21.9
09:33
MÍNIMO
9.8
07:12
PRESSÃO
MÉDIA
1016.3
MÁXIMO
1017.3
11:55
MÍNIMO
1015.2
00:19
P. ORVALHO
MÉDIA
12.1
MÁXIMO
15.5
09:33
MÍNIMO
7.2
07:12
HUMIDADE
MÉDIA
78
MÁXIMO
88
07:43
MÍNIMO
64
09:43
VELOCIDADE DO VENTO
MÉDIA
0.4
MÁXIMO
0.8
03:00
WIND GUST
MÉDIA
1.2
MÁXIMO
2.8
15:36
DIREÇÃO DO VENTO
PREDOMINANTE
NE
43.9%
N
3.0
NE
43.9
E
3.8
SE
3.8
S
4.5
SW
27.3
W
0.0
NW
2.3
PRECIPITAÇÃO
CHUVA HORA
0.1
CHUVA DIA
0.1
TEMPERATURA (°C)
MÍNIMO
9.8
MÁXIMO
21.9
MÉDIA
16.0
PRESSÃO (hpa)
MÍNIMO
1015.2
MÁXIMO
1017.3
MÉDIA
1016.3
DEVICE